Weather observations for the past three days for
Ionia County Airport
Imperial (Metric)
Date Time (edt) Wind (mph) Vis. (mi.) Weather Sky Cond. Temperature (ºF) Relative Humidity Wind Chill (°F) Heat Index (°F) Pressure Precipitation (in)
Air Dwpt 6 hour altimeter (in) sea level (mb) 1 hr 3 hr 6 hr
Max. Min.
04 06:55 S 9 10.00 Fair CLR 46.4 41 82% 42 29.62 0.0
04 06:35 S 9 10.00 Fair CLR 46.4 41 82% 42 29.63 0.0
04 06:15 S 7 10.00 Fair CLR 46.4 41 82% 43 29.63 0.0
04 05:55 S 7 10.00 Fair CLR 46.4 41 82% 43 29.63 0.0
04 05:35 S 7 10.00 Fair CLR 46.4 41 82% 43 29.63 0.0
04 05:15 SW 6 10.00 Fair CLR 46.4 41 82% 44 29.63 0.0
04 04:55 SW 7 10.00 Fair CLR 46.4 41 82% 43 29.64 0.0
04 04:35 SW 8 10.00 Fair CLR 48.2 41 76% 45 29.64 0.0
04 04:15 SW 8 10.00 Fair CLR 48.2 42.8 82% 45 29.64 0.0
04 03:55 SW 10 10.00 Fair CLR 48.2 42.8 82% 44 29.64 0.0
04 03:35 SW 9 10.00 Fair CLR 48.2 42.8 82% 45 29.65 0.0
04 03:15 SW 13 10.00 Fair CLR 50 42.8 76% 46 29.65 0.0
04 02:55 SW 12 10.00 Fair CLR 50 41 71% 46 29.66 0.0
04 02:35 SW 9 10.00 Fair CLR 50 41 71% 47 29.67 0.0
04 02:15 SW 13 10.00 Fair CLR 50 41 71% 46 29.67 0.0
04 01:55 SW 13 10.00 Fair CLR 50 41 54.5 49.5 71% 46 29.68 0.0
04 01:35 SW 10 10.00 Fair CLR 50 41 71% 46 29.69 0.0
04 01:15 SW 12 10.00 Fair CLR 50 41 71% 46 29.7 0.0
04 00:55 SW 13 G 20 10.00 Fair CLR 50 41 71% 46 29.7 0.0
04 00:35 SW 13 10.00 Fair CLR 50 41 71% 46 29.71 0.0
04 00:15 SW 13 G 18 10.00 Fair CLR 50 41 71% 46 29.71 0.0
03 23:55 SW 14 10.00 Fair CLR 50 41 71% 45 29.72 0.0
03 23:35 S 15 G 18 10.00 Fair CLR 50 41 71% 45 29.72 0.0
03 23:15 S 13 G 17 10.00 Fair CLR 50 41 71% 46 29.73 0.0
03 22:55 S 10 10.00 Fair CLR 50 39.2 67% 46 29.73 0.0
03 22:35 S 12 10.00 Fair CLR 50 39.2 67% 46 29.73 0.0
03 22:15 S 13 10.00 Fair CLR 50 39.2 67% 46 29.73 0.0
03 21:55 S 12 10.00 A Few Clouds FEW070 51.8 39.2 62% 29.73 0.0
03 21:35 S 10 10.00 A Few Clouds FEW070 51.8 39.2 62% 29.73 0.0
03 21:15 S 12 10.00 Fair CLR 51.8 39.2 62% 29.73 0.0
03 20:55 S 15 10.00 Fair CLR 51.8 39.2 62% 29.73 0.0
03 20:35 S 15 10.00 Fair CLR 53.6 39.2 58% 29.73 0.0
03 20:15 S 14 G 21 10.00 Fair CLR 53.6 39.2 58% 29.74 0.0
03 19:55 S 16 10.00 Fair CLR 55.4 39.2 63.5 54.5 55% 29.74 0.0
03 19:35 SW 16 G 22 10.00 A Few Clouds FEW090 55.4 39.2 55% 29.75 0.0
03 19:15 S 16 G 25 10.00 Mostly Cloudy BKN065 BKN090 55.4 39.2 55% 29.76 0.0
03 18:55 SW 20 10.00 Overcast BKN065 OVC100 55.4 39.2 55% 29.76 0.0
03 18:35 SW 20 G 28 10.00 Mostly Cloudy BKN090 55.4 39.2 55% 29.77 0.0
03 18:15 SW 24 G 30 10.00 Overcast and Breezy OVC090 55.4 39.2 55% 29.78 0.0
03 17:55 SW 16 G 23 10.00 Overcast OVC080 55.4 39.2 55% 29.78 0.0
03 17:35 SW 15 10.00 Overcast OVC080 55.4 39.2 55% 29.78 0.0
03 17:15 SW 17 10.00 Overcast SCT070 OVC080 55.4 39.2 55% 29.79 0.0
03 16:55 SW 25 G 31 10.00 Overcast and Breezy OVC070 55.4 39.2 55% 29.79 0.0
03 16:35 W 30 G 35 10.00 Overcast and Windy OVC080 57.2 37.4 48% 29.8 0.0
03 16:15 W 31 G 38 10.00 Overcast and Windy OVC090 60.8 39.2 45% 29.8 0.0
03 15:55 W 32 G 38 10.00 Overcast and Windy FEW055 OVC090 62.6 39.2 42% 29.8 0.0
03 15:35 W 31 G 38 10.00 Partly Cloudy and Windy SCT055 SCT090 60.8 37.4 42% 29.8 0.0
03 15:15 SW 26 G 36 10.00 A Few Clouds and Windy FEW055 62.6 37.4 39% 29.8 0.0
03 14:55 SW 30 G 38 10.00 A Few Clouds and Windy FEW055 62.6 39.2 42% 29.81 0.0
03 14:35 SW 31 G 36 10.00 Partly Cloudy and Windy SCT055 SCT070 60.8 37.4 42% 29.81 0.0
03 14:15 W 20 G 30 10.00 Mostly Cloudy SCT050 BKN065 BKN085 60.8 37.4 42% 29.82 0.0
03 13:55 SW 25 G 33 10.00 Partly Cloudy and Breezy FEW050 SCT095 62.6 39.2 62.2 44.1 42% 29.83 0.0
03 13:35 SW 25 G 31 10.00 Mostly Cloudy and Breezy SCT055 BKN095 60.8 39.2 45% 29.83 0.0
03 13:15 W 21 G 35 10.00 Overcast and Breezy BKN055 OVC095 59 37.4 45% 29.84 0.0
03 12:35 SW 22 G 31 10.00 Overcast and Breezy OVC095 57.2 33.8 41% 29.86 0.0
03 12:15 W 21 G 29 10.00 Overcast and Breezy OVC085 57.2 35.6 44% 29.87 0.0
03 11:55 W 21 G 26 10.00 Overcast and Breezy OVC085 55.4 33.8 44% 29.88 0.0
03 11:35 SW 20 G 31 10.00 Overcast BKN085 OVC100 55.4 33.8 44% 29.87 0.0
03 11:15 SW 20 G 30 10.00 Partly Cloudy SCT100 57.2 35.6 44% 29.87 0.0
03 10:55 SW 20 G 26 10.00 Mostly Cloudy BKN100 53.6 33.8 47% 29.87 0.0
03 10:35 SW 18 G 29 10.00 Mostly Cloudy BKN100 53.6 33.8 47% 29.88 0.0
03 10:15 SW 23 G 32 10.00 A Few Clouds and Breezy FEW100 53.6 33.8 47% 29.88 0.0
03 09:55 SW 22 G 26 10.00 Partly Cloudy and Breezy FEW080 SCT110 51.8 33.8 50% 29.89 0.0
03 09:35 SW 15 10.00 Overcast SCT090 OVC110 48.2 33.8 58% 43 29.89 0.0
03 09:15 SW 14 10.00 Overcast OVC080 46.4 33.8 62% 41 29.89 0.0
03 08:55 SW 16 G 21 10.00 Mostly Cloudy BKN080 BKN090 46.4 32 57% 40 29.9 0.0
03 08:35 W 17 10.00 Partly Cloudy SCT100 46.4 32 57% 40 29.9 0.0
03 08:15 SW 15 10.00 Fair CLR 46.4 32 57% 41 29.9 0.0
03 07:55 SW 15 10.00 Fair CLR 44.6 32 44.1 38.3 61% 38 29.9 0.0
03 07:35 SW 12 10.00 Fair CLR 42.8 30.2 61% 37 29.9 0.0
03 07:15 SW 12 10.00 Fair CLR 42.8 30.2 61% 37 29.9 0.0
03 06:55 SW 10 10.00 Fair CLR 41 30.2 66% 35 29.9 0.0
03 06:35 SW 12 10.00 Fair CLR 41 28.4 61% 35 29.89 0.0
03 06:15 SW 13 10.00 Fair CLR 41 28.4 61% 34 29.89 0.0
03 05:55 SW 12 10.00 Fair CLR 41 28.4 61% 35 29.9 0.0
03 05:35 SW 10 10.00 Fair CLR 39.2 26.6 61% 33 29.9 0.0
03 05:15 SW 7 10.00 Fair CLR 39.2 26.6 61% 35 29.91 0.0
03 04:55 SW 8 10.00 Fair CLR 39.2 26.6 61% 34 29.91 0.0
03 04:35 SW 9 10.00 Fair CLR 39.2 26.6 61% 34 29.91 0.0
03 04:15 SW 10 10.00 Fair CLR 39.2 26.6 61% 33 29.92 0.0
03 03:55 SW 10 10.00 Fair CLR 41 24.8 53% 35 29.92 0.0
03 03:35 S 12 G 16 10.00 Fair CLR 41 24.8 53% 35 29.92 0.0
03 03:15 S 8 10.00 Fair CLR 41 24.8 53% 36 29.93 0.0
03 02:55 S 8 10.00 Fair CLR 39.2 24.8 56% 34 29.93 0.0
03 02:35 S 6 10.00 Fair CLR 39.2 24.8 56% 36 29.94 0.0
03 02:15 SW 8 10.00 A Few Clouds FEW090 39.2 24.8 56% 34 29.95 0.0
03 01:55 SW 8 10.00 Partly Cloudy SCT090 39.2 23 48.4 36.7 52% 34 29.96 0.0
03 01:35 SW 7 10.00 Partly Cloudy SCT090 37.4 24.8 60% 33 29.96 0.0
03 01:15 SW 8 10.00 A Few Clouds FEW090 37.4 24.8 60% 32 29.97 0.0
03 00:55 SW 8 10.00 Fair CLR 37.4 24.8 60% 32 29.97 0.0
03 00:35 SW 8 10.00 A Few Clouds FEW090 37.4 24.8 60% 32 29.98 0.0
03 00:15 SW 6 10.00 Fair CLR 37.4 26.6 65% 33 29.98 0.0
02 23:55 SW 7 10.00 Fair CLR 37.4 26.6 65% 33 29.98 0.0
02 23:35 SW 7 10.00 Fair CLR 37.4 26.6 65% 33 29.99 0.0
02 23:15 W 7 10.00 Fair CLR 39.2 26.6 61% 35 29.99 0.0
02 22:55 W 7 10.00 Fair CLR 39.2 24.8 56% 35 30 0.0
02 22:35 SW 8 10.00 Fair CLR 39.2 24.8 56% 34 30 0.0
02 22:15 SW 7 10.00 Fair CLR 39.2 26.6 61% 35 30 0.0
02 21:55 SW 8 10.00 Fair CLR 41 24.8 53% 36 29.99 0.0
02 21:35 SW 8 10.00 Fair CLR 41 24.8 53% 36 29.99 0.0
02 21:15 SW 6 10.00 Fair CLR 42.8 24.8 49% 40 29.99 0.0
02 20:55 W 8 10.00 Fair CLR 42.8 24.8 49% 39 29.98 0.0
02 20:35 W 6 10.00 Fair CLR 46.4 23 40% 44 29.98 0.0
02 20:15 W 12 10.00 Fair CLR 48.2 23 37% 44 29.98 0.0
02 19:55 W 13 10.00 Fair CLR 48.2 21.2 51.8 46.2 34% 43 29.98 0.0
02 19:35 W 13 10.00 Fair CLR 48.2 23 37% 43 29.98 0.0
02 19:15 W 12 10.00 A Few Clouds FEW080 50 24.8 37% 46 29.98 0.0
02 18:55 SW 12 10.00 A Few Clouds FEW080 50 24.8 37% 46 29.98 0.0
02 18:35 W 13 G 21 10.00 Partly Cloudy SCT070 50 23 35% 46 29.99 0.0
02 18:15 W 10 10.00 Mostly Cloudy BKN075 50 24.8 37% 46 29.99 0.0
02 17:55 W 7 G 20 10.00 Partly Cloudy SCT060 SCT075 48.2 23 37% 46 29.99 0.0
02 17:35 W 5 10.00 Mostly Cloudy FEW065 BKN080 48.2 24.8 40% 47 29.99 0.0
02 17:15 W 10 10.00 Mostly Cloudy FEW065 BKN080 50 24.8 37% 46 29.99 0.0
02 16:55 W 14 G 18 10.00 Mostly Cloudy SCT065 BKN080 50 28.4 43% 45 30 0.0
02 16:35 W 14 10.00 Overcast FEW065 OVC080 50 26.6 40% 45 30 0.0
02 16:15 W 13 G 17 10.00 Overcast FEW044 SCT065 OVC080 48.2 24.8 40% 43 30.01 0.0
02 15:55 W 9 10.00 Overcast SCT065 OVC080 50 24.8 37% 47 30.02 0.0
02 15:35 W 12 10.00 Overcast OVC070 48.2 24.8 40% 44 30.03 0.0
02 15:15 NW 8 G 17 10.00 Overcast FEW060 OVC080 50 24.8 37% 47 30.03 0.0
02 14:55 NW 13 G 17 10.00 Overcast SCT060 OVC070 48.2 24.8 40% 43 30.04 0.0
02 14:35 W 10 10.00 Mostly Cloudy FEW050 BKN075 BKN080 48.2 28.4 46% 44 30.04 0.0
02 14:15 W 12 10.00 Overcast SCT060 OVC075 48.2 24.8 40% 44 30.05 0.0
02 13:55 W 10 10.00 Overcast BKN060 OVC070 46.4 24.8 48 33.6 43% 42 30.05 0.0
02 13:35 W 10 10.00 Overcast SCT050 OVC070 46.4 24.8 43% 42 30.06 0.0
02 13:15 NW 9 10.00 Overcast FEW050 OVC065 44.6 24.8 46% 40 30.06 0.0
02 12:55 W 9 10.00 Overcast SCT050 OVC065 44.6 24.8 46% 40 30.07 0.0
02 12:35 NW 9 10.00 Overcast BKN050 OVC060 44.6 24.8 46% 40 30.07 0.0
02 12:15 N 10 10.00 Overcast OVC060 44.6 24.8 46% 40 30.07 0.0
02 11:55 N 8 10.00 Overcast FEW049 OVC060 42.8 24.8 49% 39 30.08 0.0
02 11:35 NW 8 10.00 Overcast BKN050 OVC060 42.8 23 46% 39 30.08 0.0
02 11:15 NW 6 10.00 Overcast SCT047 OVC055 42.8 24.8 49% 40 30.08 0.0
02 10:55 NW 9 10.00 Overcast BKN047 OVC055 42.8 24.8 49% 38 30.08 0.0
02 10:35 NW 8 10.00 Mostly Cloudy FEW040 BKN049 BKN055 42.8 24.8 49% 39 30.08 0.0
02 10:15 NW 10 10.00 Partly Cloudy FEW040 SCT055 42.8 26.6 53% 38 30.08 0.0
02 09:55 NW 8 10.00 Fair CLR 42.8 26.6 53% 39 30.08 0.0
02 09:35 Vrbl 5 10.00 Fair CLR 41 26.6 57% 38 30.08 0.0
02 09:15 N 7 10.00 Fair CLR 39.2 26.6 61% 35 30.08 0.0
02 08:55 NW 6 10.00 Fair CLR 39.2 28.4 65% 36 30.09 0.0
02 08:35 N 6 10.00 Fair CLR 37.4 28.4 70% 33 30.08 0.0
02 08:15 N 5 10.00 Fair CLR 35.6 28.4 75% 32 30.09 0.0
02 07:55 NW 5 10.00 Fair CLR 33.8 28.4 36.3 30.7 81% 30 30.09 0.0
02 07:35 NW 5 10.00 Fair CLR 33.8 28.4 81% 30 30.08 0.0
02 07:15 NW 7 10.00 Fair CLR 32 28.4 87% 26 30.08 0.0
02 06:55 NW 7 10.00 Fair CLR 32 26.6 80% 26 30.07 0.0
02 06:35 W 7 10.00 Fair CLR 30.2 26.6 86% 24 30.07 0.0
02 06:15 W 6 10.00 Fair CLR 30.2 26.6 86% 25 30.07 0.0
02 05:55 W 6 10.00 Fair CLR 32 26.6 80% 27 30.06 0.0
02 05:35 NW 5 10.00 Fair CLR 32 26.6 80% 28 30.06 0.0
02 05:15 NW 6 10.00 A Few Clouds FEW080 33.8 26.6 75% 29 30.06 0.0
02 04:55 NW 5 10.00 Mostly Cloudy BKN080 32 26.6 80% 28 30.05 0.0
02 04:35 W 7 10.00 Mostly Cloudy BKN080 32 26.6 80% 26 30.05 0.0
02 04:15 NW 7 10.00 Mostly Cloudy BKN080 33.8 26.6 75% 28 30.05 0.0
02 03:55 W 6 10.00 Overcast OVC080 33.8 26.6 75% 29 30.05 0.0
02 03:35 W 6 10.00 Mostly Cloudy BKN080 33.8 26.6 75% 29 30.05 0.0
02 03:15 NW 6 10.00 Fair CLR 33.8 26.6 75% 29 30.05 0.0
02 02:55 NW 7 10.00 Partly Cloudy SCT075 33.8 26.6 75% 28 30.05 0.0
02 02:35 NW 6 10.00 Mostly Cloudy BKN075 33.8 26.6 75% 29 30.06 0.0
02 02:15 NW 6 10.00 Overcast OVC075 35.6 26.6 70% 31 30.06 0.0
02 01:55 NW 6 10.00 Overcast OVC075 35.6 26.6 44.1 36.3 70% 31 30.06 0.0
02 01:35 W 6 10.00 Overcast OVC075 37.4 26.6 65% 33 30.06 0.0
02 01:15 W 5 10.00 Overcast OVC075 37.4 26.6 65% 34 30.06 0.0
02 00:55 NW 3 10.00 Overcast OVC075 37.4 24.8 60% 30.05 0.0
02 00:35 NW 5 10.00 Overcast OVC075 37.4 24.8 60% 34 30.05 0.0
02 00:15 N 6 10.00 Mostly Cloudy BKN075 37.4 24.8 60% 33 30.05 0.0
01 23:55 Vrbl 6 10.00 Partly Cloudy SCT075 37.4 24.8 60% 33 30.05 0.0
01 23:35 NW 6 10.00 Overcast FEW060 OVC075 39.2 24.8 56% 36 30.04 0.0
01 23:15 N 5 10.00 Overcast FEW060 OVC075 39.2 24.8 56% 36 30.04 0.0
01 22:55 N 7 10.00 Overcast OVC075 39.2 24.8 56% 35 30.04 0.0
01 22:35 N 8 10.00 Overcast OVC075 39.2 24.8 56% 34 30.04 0.0
01 22:15 N 9 10.00 Overcast OVC075 41 24.8 53% 36 30.03 0.0
01 21:55 N 8 10.00 Overcast FEW055 OVC075 41 23 49% 36 30.03 0.0
01 21:35 N 9 10.00 Overcast FEW060 OVC075 41 24.8 53% 36 30.02 0.0
01 21:15 N 10 10.00 Overcast BKN060 OVC075 41 24.8 53% 35 30.02 0.0
01 20:55 N 9 10.00 Overcast BKN060 OVC075 41 24.8 53% 36 30.01 0.0
01 20:35 N 10 G 23 10.00 Overcast BKN060 OVC075 42.8 24.8 49% 38 30.01 0.0
01 20:15 NW 7 10.00 Overcast OVC060 42.8 24.8 49% 39 30 0.0
01 19:55 W 13 10.00 Overcast BKN060 OVC075 44.6 24.8 47.8 43.7 46% 39 29.99 0.0
01 19:35 NW 9 10.00 Overcast BKN050 OVC065 44.6 24.8 46% 40 29.99 0.0
01 19:15 NW 7 10.00 Overcast OVC060 44.6 26.6 49% 41 29.99 0.0
01 18:55 W 9 10.00 Overcast OVC060 44.6 24.8 46% 40 29.99 0.0
01 18:35 W 10 10.00 Overcast OVC050 44.6 26.6 49% 40 29.99 0.0
01 18:15 W 8 10.00 Overcast FEW045 OVC050 44.6 26.6 49% 41 29.99 0.0
01 17:55 NW 7 10.00 Overcast FEW044 OVC050 44.6 26.6 49% 41 29.98 0.0
01 17:35 W 9 10.00 Overcast BKN047 OVC055 44.6 26.6 49% 40 29.98 0.0
01 17:15 N 5 10.00 Overcast BKN045 OVC050 44.6 28.4 53% 43 29.98 0.0
01 16:55 W 7 10.00 Overcast FEW043 OVC050 44.6 26.6 49% 41 29.98 0.0
01 16:35 N 5 10.00 Overcast FEW043 OVC050 44.6 30.2 57% 43 29.98 0.0
01 16:15 W 10 10.00 Overcast FEW041 BKN050 OVC070 44.6 28.4 53% 40 29.98 0.0
01 15:55 W 9 10.00 Overcast SCT048 BKN050 OVC070 44.6 28.4 53% 40 29.98 0.0
01 15:15 NW 6 10.00 Overcast OVC043 44.6 28.4 53% 42 29.97 0.0
01 14:55 Vrbl 7 10.00 Overcast BKN043 BKN050 OVC060 44.6 28.4 53% 41 29.97 0.0
01 14:35 W 6 10.00 Overcast SCT041 BKN046 OVC065 44.6 28.4 53% 42 29.96 0.0
01 14:15 Vrbl 6 10.00 Overcast BKN039 OVC048 44.6 28.4 53% 42 29.97 0.0
01 13:55 Vrbl 6 10.00 Overcast FEW029 BKN037 OVC050 44.6 30.2 45.9 36.7 57% 42 29.97 0.0
01 13:35 NW 8 10.00 Overcast BKN037 BKN048 OVC055 44.6 30.2 57% 41 29.97 0.0
01 13:15 NW 7 10.00 Overcast FEW029 FEW037 OVC046 44.6 28.4 53% 41 29.97 0.0
01 12:55 NW 9 10.00 Overcast OVC043 44.6 30.2 57% 40 29.97 0.0
01 12:35 N 9 10.00 Overcast OVC041 42.8 26.6 53% 38 29.98 0.0
01 12:15 NW 7 10.00 Overcast BKN041 BKN055 OVC085 42.8 26.6 53% 39 29.97 0.0
01 11:55 N 8 10.00 Overcast FEW039 FEW060 OVC085 44.6 28.4 53% 41 29.97 0.0
01 11:35 NE 5 10.00 Overcast FEW046 FEW060 OVC085 42.8 28.4 57% 41 29.97 0.0
01 11:15 N 6 10.00 Overcast SCT047 BKN060 OVC085 41 28.4 61% 38 29.97 0.0
01 10:55 N 7 10.00 Overcast FEW048 SCT055 OVC070 41 30.2 66% 37 29.97 0.0
01 10:35 N 7 10.00 Overcast FEW050 SCT070 OVC080 41 30.2 66% 37 29.97 0.0
01 10:15 N 8 10.00 Overcast FEW060 OVC080 41 30.2 66% 36 29.97 0.0
01 09:55 N 8 10.00 Overcast OVC080 39.2 30.2 70% 34 29.96 0.0
01 09:35 N 8 10.00 Overcast OVC080 39.2 30.2 70% 34 29.96 0.0
01 09:15 N 9 10.00 Overcast OVC080 39.2 30.2 70% 34 29.96 0.0
01 08:55 N 8 10.00 Overcast OVC080 39.2 28.4 65% 34 29.96 0.0
01 08:35 N 6 10.00 Overcast OVC080 39.2 28.4 65% 36 29.96 0.0
01 08:15 N 6 10.00 Overcast OVC080 37.4 28.4 70% 33 29.95 0.0
01 07:55 NE 6 10.00 Overcast OVC080 37.4 28.4 41.7 35.2 70% 33 29.94 0.0
01 07:35 NE 7 10.00 Mostly Cloudy BKN080 BKN120 37.4 28.4 70% 33 29.94 0.0
01 07:15 N 6 10.00 Partly Cloudy FEW080 SCT120 35.6 28.4 75% 31 29.95 0.0
Date Time (edt) Wind (mph) Vis. (mi.) Weather Sky Cond. Air Dwpt Max. Min. Relative Humidity Wind Chill (°F) Heat Index (°F) altimeter (in) sea level (mb) 1 hr 3 hr 6 hr
6 hour
Temperature (ºF) Pressure Precipitation (in)